createdAt,value
2022-12-11T00:01:58.054Z,22.87
2022-12-11T00:04:24.749Z,19.63
2022-12-11T00:06:51.081Z,30.03
2022-12-11T00:09:18.069Z,28.93
2022-12-11T00:11:44.615Z,16.57
2022-12-11T00:14:10.989Z,16.90
2022-12-11T00:16:37.357Z,16.93
2022-12-11T00:19:04.072Z,20.77
2022-12-11T00:21:30.380Z,36.97
2022-12-11T00:23:56.685Z,23.33
2022-12-11T00:26:23.049Z,30.90
2022-12-11T00:28:52.515Z,30.67
2022-12-11T00:31:19.585Z,25.70
2022-12-11T00:33:48.985Z,26.83
2022-12-11T00:36:17.161Z,22.37
2022-12-11T00:38:43.799Z,26.27
2022-12-11T00:41:10.253Z,28.07
2022-12-11T00:43:36.524Z,21.30
2022-12-11T00:46:03.053Z,25.67
2022-12-11T00:48:29.411Z,26.83
2022-12-11T00:50:55.705Z,34.47
2022-12-11T00:53:22.078Z,22.13
2022-12-11T00:55:48.349Z,35.77
2022-12-11T00:58:15.006Z,18.13
2022-12-11T01:00:41.718Z,25.93
2022-12-11T01:03:09.210Z,19.87
2022-12-11T01:05:36.679Z,18.93
2022-12-11T01:08:03.257Z,26.17
2022-12-11T01:10:29.642Z,15.30
2022-12-11T01:12:58.978Z,16.63
2022-12-11T01:15:29.831Z,16.43
2022-12-11T01:17:56.485Z,18.93
2022-12-11T01:20:23.402Z,14.63
2022-12-11T01:22:52.452Z,21.43
2022-12-11T01:25:18.805Z,24.00
2022-12-11T01:27:45.090Z,19.37
2022-12-11T01:30:11.548Z,19.27
2022-12-11T01:32:37.898Z,22.23
2022-12-11T01:35:05.499Z,19.00
2022-12-11T01:37:31.797Z,16.97
2022-12-11T01:39:58.093Z,26.17
2022-12-11T01:42:25.194Z,16.67
2022-12-11T01:44:51.472Z,21.77
2022-12-11T01:47:17.822Z,33.67
2022-12-11T01:49:44.242Z,14.03
2022-12-11T01:52:19.522Z,15.77
2022-12-11T01:54:46.397Z,14.73
2022-12-11T01:57:13.510Z,17.77
2022-12-11T01:59:41.012Z,18.23
2022-12-11T02:02:09.686Z,17.40
2022-12-11T02:04:37.483Z,18.73
2022-12-11T02:07:04.201Z,10.47
2022-12-11T02:09:32.257Z,28.23
2022-12-11T02:12:07.733Z,10.53
2022-12-11T02:14:43.261Z,29.37
2022-12-11T02:17:25.958Z,16.87
2022-12-11T02:19:52.282Z,16.67
2022-12-11T02:22:26.354Z,23.07
2022-12-11T02:24:59.773Z,14.63
2022-12-11T02:27:40.470Z,17.40
2022-12-11T02:30:07.989Z,29.20
2022-12-11T02:32:37.702Z,22.93
2022-12-11T02:35:17.266Z,18.30
2022-12-11T02:37:45.299Z,10.47
2022-12-11T02:40:12.885Z,14.07
2022-12-11T02:42:40.680Z,12.60
2022-12-11T02:45:08.053Z,13.53
2022-12-11T02:47:35.184Z,17.90
2022-12-11T02:50:02.641Z,14.30
2022-12-11T02:52:30.438Z,20.27
2022-12-11T02:54:57.982Z,21.73
2022-12-11T02:57:28.301Z,16.33
2022-12-11T02:59:54.588Z,13.87
2022-12-11T03:02:21.086Z,11.07
2022-12-11T03:04:47.986Z,21.00
2022-12-11T03:07:25.929Z,17.03
2022-12-11T03:09:52.485Z,15.00
2022-12-11T03:12:20.249Z,17.43
2022-12-11T03:14:47.991Z,14.90
2022-12-11T03:17:15.888Z,11.03
2022-12-11T03:20:07.163Z,17.67
2022-12-11T03:22:33.673Z,13.17
2022-12-11T03:25:06.966Z,10.43
2022-12-11T03:27:36.727Z,10.97
2022-12-11T03:30:11.326Z,16.77
2022-12-11T03:32:47.670Z,12.13
2022-12-11T03:35:19.617Z,10.77
2022-12-11T03:37:46.422Z,30.33
2022-12-11T03:40:15.934Z,11.17
2022-12-11T03:42:43.623Z,13.47
2022-12-11T03:45:10.796Z,9.17
2022-12-11T03:47:39.243Z,10.63
2022-12-11T03:50:07.624Z,11.53
2022-12-11T03:52:34.563Z,14.73
2022-12-11T03:55:02.958Z,14.63
2022-12-11T03:57:30.931Z,12.20
2022-12-11T03:59:57.317Z,17.10
2022-12-11T04:02:23.639Z,8.50
2022-12-11T04:04:49.971Z,14.60
2022-12-11T04:07:16.325Z,8.27
2022-12-11T04:09:42.614Z,13.53
2022-12-11T04:12:08.893Z,13.10
2022-12-11T04:14:53.682Z,11.03
2022-12-11T04:17:49.298Z,7.72
2022-12-11T04:20:34.302Z,15.55
2022-12-11T04:23:19.303Z,7.22
2022-12-11T04:25:45.670Z,10.93
2022-12-11T04:28:11.942Z,7.13
2022-12-11T04:30:38.229Z,11.37
2022-12-11T04:33:04.760Z,9.27
2022-12-11T04:35:31.206Z,10.43
2022-12-11T04:37:57.620Z,6.70
2022-12-11T04:40:24.166Z,12.57
2022-12-11T04:42:50.479Z,8.10
2022-12-11T04:45:16.981Z,12.03
2022-12-11T04:47:43.239Z,9.03
2022-12-11T04:50:10.479Z,14.27
2022-12-11T04:52:36.760Z,11.27
2022-12-11T04:55:04.462Z,12.40
2022-12-11T04:57:30.764Z,9.83
2022-12-11T04:59:57.051Z,12.07
2022-12-11T05:02:23.469Z,9.00
2022-12-11T05:04:49.790Z,10.47
2022-12-11T05:07:16.088Z,14.70
2022-12-11T05:09:42.387Z,11.17
2022-12-11T05:12:09.184Z,8.63
2022-12-11T05:14:35.496Z,8.63
2022-12-11T05:17:01.786Z,12.00
2022-12-11T05:19:28.082Z,10.50
2022-12-11T05:21:54.358Z,9.33
2022-12-11T05:24:20.635Z,7.73
2022-12-11T05:26:46.925Z,8.93
2022-12-11T05:29:13.227Z,10.30
2022-12-11T05:31:39.533Z,10.97
2022-12-11T05:34:05.825Z,8.80
2022-12-11T05:36:33.073Z,7.50
2022-12-11T05:38:59.578Z,14.17
2022-12-11T05:41:27.033Z,10.33
2022-12-11T05:43:53.669Z,9.10
2022-12-11T05:46:21.397Z,12.30
2022-12-11T05:48:48.578Z,8.53
2022-12-11T05:51:15.794Z,8.10
2022-12-11T05:53:43.248Z,10.57
2022-12-11T05:56:17.327Z,10.80
2022-12-11T05:58:44.020Z,9.43
2022-12-11T06:01:11.594Z,12.33
2022-12-11T06:03:38.026Z,13.50
2022-12-11T06:06:04.862Z,12.37
2022-12-11T06:08:31.525Z,13.80
2022-12-11T06:10:58.105Z,8.37
2022-12-11T06:13:24.384Z,13.70
2022-12-11T06:15:50.755Z,9.73
2022-12-11T06:18:17.102Z,13.20
2022-12-11T06:20:43.486Z,9.67
2022-12-11T06:23:09.866Z,11.57
2022-12-11T06:25:38.348Z,6.77
2022-12-11T06:28:04.723Z,11.93
2022-12-11T06:30:38.642Z,8.40
2022-12-11T06:33:06.079Z,6.40
2022-12-11T06:35:35.045Z,9.80
2022-12-11T06:38:05.117Z,8.53
2022-12-11T06:40:31.434Z,16.93
2022-12-11T06:42:57.720Z,11.40
2022-12-11T06:45:24.022Z,8.03
2022-12-11T06:47:50.333Z,7.53
2022-12-11T06:50:16.681Z,10.90
2022-12-11T06:52:42.962Z,10.77
2022-12-11T06:55:09.614Z,14.10
2022-12-11T06:57:36.868Z,15.90
2022-12-11T07:00:03.348Z,10.07
2022-12-11T07:02:29.700Z,10.07
2022-12-11T07:04:56.027Z,7.83
2022-12-11T07:07:22.301Z,8.13
2022-12-11T07:09:48.609Z,8.17
2022-12-11T07:12:14.871Z,11.30
2022-12-11T07:14:41.149Z,7.60
2022-12-11T07:17:07.699Z,8.17
2022-12-11T07:19:34.209Z,8.87
2022-12-11T07:22:00.505Z,8.07
2022-12-11T07:24:26.781Z,8.00
2022-12-11T07:26:53.310Z,10.43
2022-12-11T07:29:19.692Z,9.03
2022-12-11T07:31:45.978Z,5.47
2022-12-11T07:34:12.644Z,6.57
2022-12-11T07:36:38.998Z,5.93
2022-12-11T07:39:05.428Z,8.20
2022-12-11T07:41:31.876Z,4.80
2022-12-11T07:43:59.229Z,4.70
2022-12-11T07:46:26.704Z,6.60
2022-12-11T07:48:53.239Z,5.43
2022-12-11T07:51:22.718Z,5.83
2022-12-11T07:53:49.854Z,7.40
2022-12-11T07:56:17.033Z,5.47
2022-12-11T07:58:43.681Z,7.97
2022-12-11T08:01:13.953Z,10.97
2022-12-11T08:03:40.275Z,7.77
2022-12-11T08:06:06.763Z,4.63
2022-12-11T08:08:33.069Z,6.17
2022-12-11T08:11:03.121Z,14.77
2022-12-11T08:13:29.390Z,6.03
2022-12-11T08:15:55.658Z,6.00
2022-12-11T08:18:21.998Z,5.90
2022-12-11T08:20:48.336Z,6.50
2022-12-11T08:23:14.641Z,5.60
2022-12-11T08:25:40.898Z,6.77
2022-12-11T08:28:07.182Z,4.93
2022-12-11T08:30:33.532Z,11.00
2022-12-11T08:32:59.803Z,4.70
2022-12-11T08:35:26.447Z,7.97
2022-12-11T08:37:52.719Z,8.53
2022-12-11T08:40:19.024Z,6.07
2022-12-11T08:42:45.331Z,8.77
2022-12-11T08:45:11.989Z,5.90
2022-12-11T08:47:38.595Z,6.50
2022-12-11T08:50:05.048Z,6.80
2022-12-11T08:52:31.490Z,5.13
2022-12-11T08:54:58.330Z,6.13
2022-12-11T08:57:24.631Z,9.00
2022-12-11T08:59:50.941Z,6.07
2022-12-11T09:02:17.240Z,8.20
2022-12-11T09:04:43.782Z,8.50
2022-12-11T09:07:10.046Z,5.17
2022-12-11T09:09:36.459Z,6.27
2022-12-11T09:12:04.586Z,9.97
2022-12-11T09:14:30.920Z,9.60
2022-12-11T09:16:57.205Z,9.10
2022-12-11T09:19:26.681Z,5.17
2022-12-11T09:21:57.018Z,10.13
2022-12-11T09:24:23.294Z,6.07
2022-12-11T09:26:49.596Z,9.37
2022-12-11T09:29:15.889Z,4.63
2022-12-11T09:31:42.187Z,12.43
2022-12-11T09:34:09.550Z,8.50
2022-12-11T09:36:37.913Z,4.93
2022-12-11T09:39:05.562Z,5.87
2022-12-11T09:41:31.813Z,9.53
2022-12-11T09:44:16.636Z,6.03
2022-12-11T09:46:43.388Z,4.93
2022-12-11T09:49:16.813Z,8.87
2022-12-11T09:51:46.309Z,9.20
2022-12-11T09:54:13.640Z,13.50
2022-12-11T09:56:45.506Z,7.77
2022-12-11T09:59:20.783Z,12.10
2022-12-11T10:01:54.895Z,13.60
2022-12-11T10:04:24.223Z,11.43
2022-12-11T10:07:08.062Z,10.57
2022-12-11T10:09:43.272Z,14.67
2022-12-11T10:12:12.772Z,12.97
2022-12-11T10:14:41.814Z,12.83
2022-12-11T10:17:28.458Z,8.73
2022-12-11T10:19:56.943Z,11.23
2022-12-11T10:22:26.071Z,12.90
2022-12-11T10:25:10.535Z,23.57
2022-12-11T10:27:38.817Z,16.65
2022-12-11T10:30:22.629Z,19.40
2022-12-11T10:32:53.749Z,15.37
2022-12-11T10:35:29.506Z,13.10
2022-12-11T10:37:58.077Z,22.47
2022-12-11T10:40:25.316Z,16.87
2022-12-11T10:42:53.142Z,18.80
2022-12-11T10:45:19.498Z,21.70
2022-12-11T10:47:45.979Z,13.33
2022-12-11T10:50:22.834Z,20.57
2022-12-11T10:52:49.140Z,14.13
2022-12-11T10:55:21.274Z,15.40
2022-12-11T10:57:54.809Z,17.63
2022-12-11T11:00:30.538Z,18.53
2022-12-11T11:02:57.636Z,17.27
2022-12-11T11:05:29.709Z,16.50
2022-12-11T11:08:14.816Z,21.13
2022-12-11T11:10:51.659Z,18.75
2022-12-11T11:13:18.054Z,18.13
2022-12-11T11:15:44.807Z,19.80
2022-12-11T11:18:12.692Z,21.90
2022-12-11T11:20:43.757Z,20.17
2022-12-11T11:23:12.289Z,18.73
2022-12-11T11:25:38.607Z,19.70
2022-12-11T11:28:06.196Z,15.10
2022-12-11T11:30:36.610Z,28.70
2022-12-11T11:33:12.251Z,15.43
2022-12-11T11:35:40.165Z,23.60
2022-12-11T11:38:08.966Z,15.70
2022-12-11T11:40:45.620Z,22.87
2022-12-11T11:43:30.449Z,20.10
2022-12-11T11:45:58.394Z,20.10
2022-12-11T11:48:29.523Z,26.03
2022-12-11T11:50:57.879Z,19.30
2022-12-11T11:53:28.755Z,15.50
2022-12-11T11:56:24.232Z,13.30
2022-12-11T11:58:57.490Z,18.40
2022-12-11T12:01:24.120Z,16.77
2022-12-11T12:03:50.873Z,25.70
2022-12-11T12:06:26.996Z,25.13
2022-12-11T12:08:56.072Z,23.42
2022-12-11T12:11:22.571Z,22.77
2022-12-11T12:13:53.597Z,23.73
2022-12-11T12:16:55.120Z,20.00
2022-12-11T12:19:21.438Z,29.23
2022-12-11T12:21:51.002Z,26.63
2022-12-11T12:24:17.264Z,35.53
2022-12-11T12:26:46.987Z,24.90
2022-12-11T12:29:19.356Z,29.87
2022-12-11T12:31:53.416Z,26.77
2022-12-11T12:34:27.323Z,25.40
2022-12-11T12:36:56.918Z,20.80
2022-12-11T12:39:46.379Z,25.67
2022-12-11T12:42:19.790Z,21.23
2022-12-11T12:44:52.054Z,24.17
2022-12-11T12:47:18.759Z,24.73
2022-12-11T12:49:46.318Z,22.77
2022-12-11T12:52:20.703Z,23.30
2022-12-11T12:55:08.829Z,19.67
2022-12-11T12:57:36.722Z,20.07
2022-12-11T13:00:09.580Z,18.37
2022-12-11T13:02:48.243Z,22.10
2022-12-11T13:05:20.180Z,20.83
2022-12-11T13:07:54.367Z,15.93
2022-12-11T13:10:56.721Z,16.50
2022-12-11T13:13:35.008Z,15.63
2022-12-11T13:16:16.521Z,16.67
2022-12-11T13:18:49.797Z,22.93
2022-12-11T13:21:30.078Z,22.67
2022-12-11T13:24:12.511Z,17.13
2022-12-11T13:26:39.253Z,16.03
2022-12-11T13:29:06.040Z,16.97
2022-12-11T13:31:34.672Z,19.27
2022-12-11T13:34:27.121Z,18.93
2022-12-11T13:36:54.275Z,15.63
2022-12-11T13:39:24.752Z,21.27
2022-12-11T13:41:56.831Z,12.37
2022-12-11T13:44:27.331Z,18.33
2022-12-11T13:46:55.123Z,15.70
2022-12-11T13:49:27.014Z,19.37
2022-12-11T13:52:00.089Z,18.13
2022-12-11T13:54:27.833Z,16.70
2022-12-11T13:56:55.213Z,14.23
2022-12-11T13:59:27.795Z,20.33
2022-12-11T14:01:55.592Z,16.10
2022-12-11T14:04:22.598Z,15.77
2022-12-11T14:06:49.221Z,19.73
2022-12-11T14:09:18.137Z,19.50
2022-12-11T14:11:46.079Z,15.13
2022-12-11T14:14:23.277Z,17.00
2022-12-11T14:16:50.659Z,17.83
2022-12-11T14:19:19.075Z,12.87
2022-12-11T14:21:55.187Z,16.60
2022-12-11T14:24:21.609Z,20.73
2022-12-11T14:26:51.629Z,14.97
2022-12-11T14:29:27.218Z,16.83
2022-12-11T14:31:53.995Z,14.00
2022-12-11T14:34:28.143Z,15.37
2022-12-11T14:36:54.865Z,14.73
2022-12-11T14:39:26.222Z,13.57
2022-12-11T14:42:18.689Z,17.30
2022-12-11T14:45:14.511Z,14.67
2022-12-11T14:47:42.136Z,11.80
2022-12-11T14:50:17.917Z,17.07
2022-12-11T14:52:47.324Z,13.97
2022-12-11T14:55:24.997Z,14.83
2022-12-11T14:57:55.159Z,15.33
2022-12-11T15:00:22.867Z,16.63
2022-12-11T15:03:06.462Z,17.27
2022-12-11T15:05:40.267Z,14.50
2022-12-11T15:08:09.938Z,16.15
2022-12-11T15:10:37.567Z,20.60
2022-12-11T15:13:05.835Z,14.37
2022-12-11T15:15:37.692Z,13.07
2022-12-11T15:18:06.698Z,8.40
2022-12-11T15:20:32.972Z,18.03
2022-12-11T15:23:01.643Z,10.43
2022-12-11T15:25:28.885Z,13.60
2022-12-11T15:27:56.700Z,13.80
2022-12-11T15:30:26.796Z,14.47
2022-12-11T15:33:03.625Z,13.17
2022-12-11T15:35:30.262Z,14.27
2022-12-11T15:37:57.600Z,14.57
2022-12-11T15:40:24.500Z,18.80
2022-12-11T15:42:50.965Z,16.60
2022-12-11T15:45:17.212Z,17.00
2022-12-11T15:47:43.903Z,15.50
2022-12-11T15:50:13.426Z,15.33
2022-12-11T15:52:39.988Z,16.27
2022-12-11T15:55:06.364Z,15.97
2022-12-11T15:57:32.630Z,15.53
2022-12-11T15:59:59.052Z,20.97
2022-12-11T16:02:27.641Z,17.53
2022-12-11T16:04:54.151Z,15.97
2022-12-11T16:07:24.157Z,14.47
2022-12-11T16:09:50.454Z,17.27
2022-12-11T16:12:16.904Z,21.70
2022-12-11T16:14:43.956Z,13.80
2022-12-11T16:17:10.646Z,12.17
2022-12-11T16:19:37.287Z,18.63
2022-12-11T16:22:03.693Z,19.87
2022-12-11T16:24:29.965Z,15.13
2022-12-11T16:26:56.327Z,14.40
2022-12-11T16:29:22.761Z,18.93
2022-12-11T16:31:49.111Z,16.83
2022-12-11T16:34:15.419Z,14.23
2022-12-11T16:36:41.761Z,17.17
2022-12-11T16:39:10.157Z,10.90
2022-12-11T16:41:36.630Z,15.90
2022-12-11T16:44:03.569Z,13.17
2022-12-11T16:46:29.902Z,14.57
2022-12-11T16:48:56.221Z,12.20
2022-12-11T16:51:22.567Z,16.93
2022-12-11T16:53:48.901Z,17.40
2022-12-11T16:56:15.197Z,18.33
2022-12-11T16:58:41.750Z,16.70
2022-12-11T17:01:11.913Z,14.20
2022-12-11T17:03:38.579Z,18.70
2022-12-11T17:06:10.129Z,15.73
2022-12-11T17:08:36.954Z,16.87
2022-12-11T17:11:06.946Z,15.60
2022-12-11T17:13:36.174Z,13.77
2022-12-11T17:16:06.855Z,17.70
2022-12-11T17:18:33.533Z,12.77
2022-12-11T17:21:00.278Z,14.73
2022-12-11T17:23:26.575Z,16.50
2022-12-11T17:25:52.851Z,15.60
2022-12-11T17:28:19.160Z,15.07
2022-12-11T17:30:45.588Z,16.93
2022-12-11T17:33:11.978Z,16.30
2022-12-11T17:35:38.514Z,14.13
2022-12-11T17:38:05.039Z,16.30
2022-12-11T17:40:31.371Z,14.97
2022-12-11T17:42:57.675Z,15.80
2022-12-11T17:45:23.950Z,15.10
2022-12-11T17:47:50.221Z,12.90
2022-12-11T17:50:16.560Z,9.87
2022-12-11T17:52:44.420Z,10.53
2022-12-11T17:55:11.225Z,12.83
2022-12-11T17:57:37.958Z,13.00
2022-12-11T18:00:04.816Z,12.87
2022-12-11T18:02:31.330Z,12.27
2022-12-11T18:04:57.639Z,17.70
2022-12-11T18:07:25.202Z,19.60
2022-12-11T18:09:51.506Z,11.43
2022-12-11T18:12:17.800Z,13.30
2022-12-11T18:14:44.082Z,13.53
2022-12-11T18:17:10.343Z,14.13
2022-12-11T18:19:39.178Z,9.10
2022-12-11T18:22:09.124Z,11.70
2022-12-11T18:24:35.398Z,19.43
2022-12-11T18:27:02.623Z,15.73
2022-12-11T18:29:28.913Z,12.43
2022-12-11T18:31:55.262Z,17.13
2022-12-11T18:34:21.593Z,11.93
2022-12-11T18:36:47.974Z,15.40
2022-12-11T18:39:14.353Z,9.47
2022-12-11T18:41:40.630Z,9.87
2022-12-11T18:44:10.006Z,13.47
2022-12-11T18:46:36.666Z,12.87
2022-12-11T18:49:03.026Z,16.27
2022-12-11T18:51:29.324Z,13.43
2022-12-11T18:53:55.673Z,13.70
2022-12-11T18:56:22.394Z,10.40
2022-12-11T18:58:48.869Z,13.77
2022-12-11T19:01:25.804Z,11.03
2022-12-11T19:04:00.797Z,11.27
2022-12-11T19:06:32.011Z,10.10
2022-12-11T19:08:59.652Z,13.60
2022-12-11T19:11:26.985Z,13.27
2022-12-11T19:13:53.855Z,13.93
2022-12-11T19:16:24.603Z,14.20
2022-12-11T19:18:51.196Z,14.97
2022-12-11T19:21:17.966Z,12.03
2022-12-11T19:23:44.989Z,17.00
2022-12-11T19:26:12.128Z,11.70
2022-12-11T19:28:38.705Z,20.97
2022-12-11T19:31:08.531Z,14.30
2022-12-11T19:33:34.839Z,13.03
2022-12-11T19:36:02.030Z,10.30
2022-12-11T19:38:28.525Z,10.57
2022-12-11T19:40:54.792Z,14.23
2022-12-11T19:43:21.294Z,17.90
2022-12-11T19:45:48.199Z,12.00
2022-12-11T19:48:14.536Z,16.63
2022-12-11T19:50:40.837Z,20.13
2022-12-11T19:53:07.255Z,13.17
2022-12-11T19:55:33.560Z,13.60
2022-12-11T19:57:59.845Z,14.60
2022-12-11T20:00:26.124Z,10.43
2022-12-11T20:02:52.441Z,11.73
2022-12-11T20:05:18.813Z,17.23
2022-12-11T20:07:45.298Z,15.43
2022-12-11T20:10:11.789Z,16.73
2022-12-11T20:12:38.067Z,18.83
2022-12-11T20:15:05.025Z,14.87
2022-12-11T20:17:33.186Z,14.63
2022-12-11T20:19:59.471Z,15.47
2022-12-11T20:22:25.743Z,16.03
2022-12-11T20:24:52.075Z,17.13
2022-12-11T20:27:18.347Z,15.20
2022-12-11T20:29:44.606Z,17.23
2022-12-11T20:32:14.199Z,17.17
2022-12-11T20:34:41.166Z,16.70
2022-12-11T20:37:07.888Z,8.53
2022-12-11T20:39:34.192Z,14.90
2022-12-11T20:42:04.613Z,17.53
2022-12-11T20:44:31.503Z,13.43
2022-12-11T20:46:57.840Z,15.97
2022-12-11T20:49:24.092Z,13.03
2022-12-11T20:51:50.358Z,19.13
2022-12-11T20:54:16.647Z,15.27
2022-12-11T20:56:42.909Z,13.97
2022-12-11T20:59:10.440Z,22.27
2022-12-11T21:01:36.823Z,15.60
2022-12-11T21:04:03.135Z,17.53
2022-12-11T21:06:34.200Z,14.50
2022-12-11T21:09:02.613Z,16.33
2022-12-11T21:11:29.013Z,17.97
2022-12-11T21:13:55.341Z,16.03
2022-12-11T21:16:22.019Z,19.33
2022-12-11T21:18:48.476Z,23.63
2022-12-11T21:21:15.506Z,19.50
2022-12-11T21:23:41.894Z,20.50
2022-12-11T21:26:08.175Z,14.13
2022-12-11T21:28:35.635Z,18.77
2022-12-11T21:31:03.094Z,22.30
2022-12-11T21:33:29.379Z,16.47
2022-12-11T21:35:59.486Z,18.10
2022-12-11T21:38:26.220Z,14.97
2022-12-11T21:40:52.761Z,18.97
2022-12-11T21:43:19.400Z,19.60
2022-12-11T21:46:00.889Z,18.50
2022-12-11T21:48:28.676Z,15.67
2022-12-11T21:50:54.959Z,17.70
2022-12-11T21:53:21.213Z,15.77
2022-12-11T21:55:47.468Z,18.50
2022-12-11T21:58:13.733Z,11.83
2022-12-11T22:00:40.012Z,14.03
2022-12-11T22:03:06.405Z,12.60
2022-12-11T22:05:32.801Z,16.30
2022-12-11T22:07:59.148Z,19.13
2022-12-11T22:10:25.493Z,21.27
2022-12-11T22:12:52.429Z,22.80
2022-12-11T22:15:18.709Z,21.63
2022-12-11T22:17:44.999Z,18.03
2022-12-11T22:20:11.493Z,16.77
2022-12-11T22:22:37.768Z,17.17
2022-12-11T22:25:06.954Z,14.53
2022-12-11T22:27:33.496Z,17.90
2022-12-11T22:29:59.972Z,19.57
2022-12-11T22:32:27.445Z,19.47
2022-12-11T22:34:53.877Z,17.00
2022-12-11T22:37:20.199Z,17.73
2022-12-11T22:39:46.506Z,14.90
2022-12-11T22:42:12.778Z,23.77
2022-12-11T22:44:39.319Z,19.30
2022-12-11T22:47:05.597Z,17.67
2022-12-11T22:49:31.858Z,20.03
2022-12-11T22:51:58.170Z,14.43
2022-12-11T22:54:24.564Z,13.70
2022-12-11T22:56:50.876Z,15.53
2022-12-11T22:59:17.163Z,17.33
2022-12-11T23:01:43.706Z,28.47
2022-12-11T23:04:09.989Z,21.13
2022-12-11T23:06:36.268Z,18.33
2022-12-11T23:09:03.029Z,12.53
2022-12-11T23:11:30.819Z,18.83
2022-12-11T23:13:57.106Z,12.10
2022-12-11T23:16:25.304Z,19.20
2022-12-11T23:18:52.090Z,16.13
2022-12-11T23:21:18.732Z,15.47
2022-12-11T23:23:45.008Z,18.97
2022-12-11T23:26:12.695Z,18.27
2022-12-11T23:28:38.996Z,16.17
2022-12-11T23:31:05.453Z,21.47
2022-12-11T23:33:31.775Z,11.70
2022-12-11T23:35:58.543Z,25.10
2022-12-11T23:38:25.039Z,16.10
2022-12-11T23:40:51.410Z,18.87
2022-12-11T23:43:17.868Z,14.17
2022-12-11T23:45:44.716Z,19.97
2022-12-11T23:48:12.524Z,17.83
2022-12-11T23:50:39.323Z,13.33
2022-12-11T23:53:05.726Z,16.53
2022-12-11T23:55:32.011Z,19.73
2022-12-11T23:57:58.295Z,14.83
